createdAt,value
2022-08-19T00:02:14.081Z,95767.25
2022-08-19T00:04:41.493Z,95758.72
2022-08-19T00:07:08.686Z,95765.53
2022-08-19T00:09:35.865Z,95772.03
2022-08-19T00:12:03.721Z,95775.59
2022-08-19T00:14:34.085Z,95777.66
2022-08-19T00:17:01.896Z,95768.72
2022-08-19T00:19:29.124Z,95780.59
2022-08-19T00:21:57.091Z,95772.13
2022-08-19T00:24:24.560Z,95777.75
2022-08-19T00:26:52.983Z,95770.06
2022-08-19T00:29:21.898Z,95774.44
2022-08-19T00:31:50.778Z,95764.25
2022-08-19T00:34:18.126Z,95768.31
2022-08-19T00:36:46.134Z,95762.75
2022-08-19T00:39:14.288Z,95770.06
2022-08-19T00:41:41.780Z,95773.53
2022-08-19T00:44:13.636Z,95766.16
2022-08-19T00:46:43.005Z,95763.22
2022-08-19T00:49:16.027Z,95766.16
2022-08-19T00:51:47.589Z,95755.06
2022-08-19T00:54:15.808Z,95754.59
2022-08-19T00:56:43.480Z,95753.06
2022-08-19T00:59:11.521Z,95756.22
2022-08-19T01:01:43.643Z,95765.81
2022-08-19T01:04:11.029Z,95752.28
2022-08-19T01:06:40.723Z,95753.81
2022-08-19T01:09:09.046Z,95754.69
2022-08-19T01:11:41.097Z,95744.75
2022-08-19T01:14:10.264Z,95754.59
2022-08-19T01:16:39.796Z,95747.72
2022-08-19T01:19:44.436Z,95746.97
2022-08-19T01:22:20.024Z,95745.81
2022-08-19T01:24:50.320Z,95743.78
2022-08-19T01:27:18.917Z,95739.47
2022-08-19T01:29:47.771Z,95732.31
2022-08-19T01:32:33.157Z,95737.38
2022-08-19T01:35:03.902Z,95740.94
2022-08-19T01:37:42.354Z,95744.25
2022-08-19T01:40:10.661Z,95751.25
2022-08-19T01:42:37.931Z,95735.69
2022-08-19T01:45:07.141Z,95740.44
2022-08-19T01:47:37.157Z,95744.13
2022-08-19T01:50:07.255Z,95736.34
2022-08-19T01:52:37.018Z,95739.22
2022-08-19T01:55:07.235Z,95733.53
2022-08-19T01:57:34.879Z,95734.28
2022-08-19T02:00:03.934Z,95744.44
2022-08-19T02:02:38.976Z,95735.28
2022-08-19T02:05:08.142Z,95749.13
2022-08-19T02:07:41.298Z,95742.13
2022-08-19T02:10:19.163Z,95742.31
2022-08-19T02:12:46.455Z,95739.97
2022-08-19T02:15:14.959Z,95736.38
2022-08-19T02:17:43.251Z,95743.81
2022-08-19T02:20:11.168Z,95735.28
2022-08-19T02:22:42.359Z,95742.88
2022-08-19T02:25:11.604Z,95746.84
2022-08-19T02:27:39.639Z,95754.34
2022-08-19T02:30:08.906Z,95755.25
2022-08-19T02:32:44.724Z,95750.91
2022-08-19T02:35:14.110Z,95756.00
2022-08-19T02:38:01.344Z,95762.53
2022-08-19T02:40:29.445Z,95756.72
2022-08-19T02:42:57.038Z,95751.16
2022-08-19T02:45:24.245Z,95749.78
2022-08-19T02:47:51.400Z,95745.44
2022-08-19T02:50:19.542Z,95759.94
2022-08-19T02:52:46.743Z,95756.16
2022-08-19T02:55:13.917Z,95761.00
2022-08-19T02:57:42.003Z,95763.28
2022-08-19T03:00:13.367Z,95772.84
2022-08-19T03:02:41.517Z,95765.75
2022-08-19T03:05:10.637Z,95763.50
2022-08-19T03:07:38.105Z,95766.41
2022-08-19T03:10:05.983Z,95764.97
2022-08-19T03:12:36.828Z,95762.09
2022-08-19T03:15:06.460Z,95764.63
2022-08-19T03:17:34.289Z,95758.88
2022-08-19T03:20:01.875Z,95765.53
2022-08-19T03:22:30.944Z,95761.31
2022-08-19T03:24:58.204Z,95770.88
2022-08-19T03:27:26.671Z,95774.66
2022-08-19T03:29:57.572Z,95774.09
2022-08-19T03:32:32.476Z,95775.09
2022-08-19T03:35:00.626Z,95775.41
2022-08-19T03:37:27.719Z,95773.75
2022-08-19T03:39:54.955Z,95772.41
2022-08-19T03:42:32.609Z,95769.81
2022-08-19T03:45:08.152Z,95763.75
2022-08-19T03:47:35.285Z,95769.19
2022-08-19T03:50:03.277Z,95764.63
2022-08-19T03:52:30.456Z,95770.72
2022-08-19T03:54:57.698Z,95772.97
2022-08-19T03:57:31.750Z,95763.06
2022-08-19T04:00:03.733Z,95772.44
2022-08-19T04:02:42.181Z,95772.84
2022-08-19T04:05:09.631Z,95777.31
2022-08-19T04:07:36.771Z,95781.91
2022-08-19T04:10:04.329Z,95782.19
2022-08-19T04:12:31.485Z,95781.41
2022-08-19T04:14:59.324Z,95789.97
2022-08-19T04:17:26.772Z,95782.97
2022-08-19T04:19:53.870Z,95793.88
2022-08-19T04:22:21.027Z,95792.16
2022-08-19T04:24:48.123Z,95784.06
2022-08-19T04:27:16.663Z,95782.88
2022-08-19T04:29:44.147Z,95787.06
2022-08-19T04:32:12.036Z,95785.06
2022-08-19T04:35:01.361Z,95780.97
2022-08-19T04:37:35.039Z,95786.94
2022-08-19T04:40:23.230Z,95786.59
2022-08-19T04:42:50.362Z,95784.53
2022-08-19T04:45:17.701Z,95789.19
2022-08-19T04:47:48.178Z,95798.97
2022-08-19T04:50:28.055Z,95788.81
2022-08-19T04:52:56.873Z,95786.28
2022-08-19T04:55:26.335Z,95787.72
2022-08-19T04:57:55.089Z,95792.88
2022-08-19T05:00:22.445Z,95785.44
2022-08-19T05:02:50.124Z,95799.31
2022-08-19T05:05:18.123Z,95793.75
2022-08-19T05:07:45.263Z,95791.22
2022-08-19T05:10:13.243Z,95791.56
2022-08-19T05:12:40.452Z,95793.34
2022-08-19T05:15:09.437Z,95790.91
2022-08-19T05:17:38.879Z,95793.56
2022-08-19T05:20:27.014Z,95795.81
2022-08-19T05:22:54.468Z,95790.56
2022-08-19T05:25:22.654Z,95794.78
2022-08-19T05:27:50.278Z,95795.81
2022-08-19T05:30:18.312Z,95795.53
2022-08-19T05:32:45.875Z,95800.44
2022-08-19T05:35:13.175Z,95792.56
2022-08-19T05:37:44.006Z,95799.06
2022-08-19T05:40:11.758Z,95797.28
2022-08-19T05:42:39.311Z,95795.47
2022-08-19T05:45:07.525Z,95797.56
2022-08-19T05:47:34.694Z,95795.50
2022-08-19T05:50:02.879Z,95804.81
2022-08-19T05:52:32.692Z,95796.63
2022-08-19T05:55:00.847Z,95804.09
2022-08-19T05:57:29.831Z,95806.22
2022-08-19T05:59:59.121Z,95811.16
2022-08-19T06:02:31.764Z,95820.50
2022-08-19T06:04:59.182Z,95813.69
2022-08-19T06:07:26.411Z,95823.28
2022-08-19T06:10:00.347Z,95818.75
2022-08-19T06:12:33.930Z,95816.56
2022-08-19T06:15:02.879Z,95816.72
2022-08-19T06:17:31.325Z,95829.66
2022-08-19T06:19:59.557Z,95833.84
2022-08-19T06:22:28.104Z,95831.47
2022-08-19T06:24:56.506Z,95842.31
2022-08-19T06:27:24.161Z,95845.09
2022-08-19T06:29:51.328Z,95844.47
2022-08-19T06:32:20.078Z,95839.78
2022-08-19T06:34:47.811Z,95849.19
2022-08-19T06:37:15.014Z,95855.53
2022-08-19T06:39:44.302Z,95858.53
2022-08-19T06:42:12.978Z,95863.19
2022-08-19T06:44:48.165Z,95867.38
2022-08-19T06:47:23.991Z,95860.53
2022-08-19T06:50:05.508Z,95875.88
2022-08-19T06:52:38.225Z,95886.47
2022-08-19T06:55:06.892Z,95892.50
2022-08-19T06:57:34.729Z,95890.91
2022-08-19T07:00:02.285Z,95890.81
2022-08-19T07:02:29.572Z,95892.38
2022-08-19T07:04:59.013Z,95897.38
2022-08-19T07:07:26.275Z,95901.28
2022-08-19T07:09:59.866Z,95897.53
2022-08-19T07:12:32.303Z,95909.97
2022-08-19T07:14:59.825Z,95915.22
2022-08-19T07:17:27.621Z,95917.44
2022-08-19T07:19:56.154Z,95902.63
2022-08-19T07:22:24.170Z,95896.59
2022-08-19T07:24:52.494Z,95906.44
2022-08-19T07:27:24.825Z,95914.09
2022-08-19T07:29:56.261Z,95916.28
2022-08-19T07:32:28.220Z,95911.81
2022-08-19T07:34:57.109Z,95910.31
2022-08-19T07:37:32.373Z,95917.28
2022-08-19T07:40:02.068Z,95905.00
2022-08-19T07:42:30.791Z,95910.66
2022-08-19T07:44:59.347Z,95921.31
2022-08-19T07:47:49.170Z,95912.50
2022-08-19T07:50:16.550Z,95909.72
2022-08-19T07:52:45.740Z,95907.53
2022-08-19T07:55:42.086Z,95905.47
2022-08-19T07:58:07.200Z,95908.31
2022-08-19T08:00:34.918Z,95907.50
2022-08-19T08:03:02.115Z,95902.44
2022-08-19T08:05:47.507Z,95904.31
2022-08-19T08:08:27.657Z,95903.63
2022-08-19T08:10:56.783Z,95908.94
2022-08-19T08:13:24.674Z,95907.97
2022-08-19T08:15:52.218Z,95907.50
2022-08-19T08:18:21.901Z,95898.09
2022-08-19T08:20:56.273Z,95911.78
2022-08-19T08:23:24.666Z,95910.88
2022-08-19T08:25:53.498Z,95914.09
2022-08-19T08:28:20.834Z,95921.63
2022-08-19T08:30:50.709Z,95920.91
2022-08-19T08:33:34.157Z,95923.16
2022-08-19T08:36:09.881Z,95926.00
2022-08-19T08:38:41.540Z,95919.31
2022-08-19T08:41:45.414Z,95918.16
2022-08-19T08:44:20.219Z,95927.75
2022-08-19T08:46:57.595Z,95914.66
2022-08-19T08:49:46.513Z,95912.81
2022-08-19T08:52:24.640Z,95910.06
2022-08-19T08:55:03.184Z,95905.56
2022-08-19T08:57:49.765Z,95905.41
2022-08-19T09:00:31.208Z,95901.66
2022-08-19T09:03:00.731Z,95902.00
2022-08-19T09:05:48.635Z,95888.31
2022-08-19T09:08:40.304Z,95891.31
2022-08-19T09:11:13.467Z,95901.75
2022-08-19T09:14:01.521Z,95897.69
2022-08-19T09:16:28.762Z,95899.22
2022-08-19T09:19:03.733Z,95893.22
2022-08-19T09:21:35.474Z,95893.81
2022-08-19T09:24:05.399Z,95888.28
2022-08-19T09:26:35.290Z,95889.88
2022-08-19T09:29:15.219Z,95893.00
2022-08-19T09:31:42.850Z,95899.81
2022-08-19T09:34:21.099Z,95904.50
2022-08-19T09:36:55.236Z,95901.34
2022-08-19T09:39:23.067Z,95903.22
2022-08-19T09:41:50.953Z,95901.16
2022-08-19T09:44:21.104Z,95904.41
2022-08-19T09:46:49.237Z,95902.56
2022-08-19T09:49:18.666Z,95909.00
2022-08-19T09:51:51.287Z,95911.47
2022-08-19T09:54:23.400Z,95908.09
2022-08-19T09:56:56.115Z,95893.22
2022-08-19T09:59:23.365Z,95895.38
2022-08-19T10:01:54.116Z,95897.00
2022-08-19T10:04:44.784Z,95897.53
2022-08-19T10:07:12.233Z,95893.75
2022-08-19T10:09:41.846Z,95899.75
2022-08-19T10:12:11.286Z,95892.25
2022-08-19T10:14:39.282Z,95894.03
2022-08-19T10:17:19.238Z,95891.56
2022-08-19T10:19:55.051Z,95889.94
2022-08-19T10:22:23.265Z,95892.09
2022-08-19T10:24:53.451Z,95885.53
2022-08-19T10:27:20.689Z,95884.53
2022-08-19T10:29:48.750Z,95875.03
2022-08-19T10:32:16.542Z,95874.66
2022-08-19T10:34:48.510Z,95866.00
2022-08-19T10:37:29.082Z,95874.31
2022-08-19T10:39:59.650Z,95869.81
2022-08-19T10:42:26.813Z,95873.75
2022-08-19T10:44:54.051Z,95874.53
2022-08-19T10:47:25.677Z,95878.69
2022-08-19T10:50:14.270Z,95875.56
2022-08-19T10:52:49.189Z,95884.84
2022-08-19T10:55:41.354Z,95871.13
2022-08-19T10:58:23.426Z,95876.28
2022-08-19T11:00:58.951Z,95875.31
2022-08-19T11:03:28.832Z,95870.78
2022-08-19T11:06:04.941Z,95874.09
2022-08-19T11:08:33.139Z,95867.16
2022-08-19T11:11:03.773Z,95858.63
2022-08-19T11:13:34.348Z,95873.16
2022-08-19T11:16:22.605Z,95883.59
2022-08-19T11:18:52.725Z,95864.09
2022-08-19T11:21:26.003Z,95857.47
2022-08-19T11:23:56.569Z,95847.19
2022-08-19T11:26:25.158Z,95854.84
2022-08-19T11:28:55.056Z,95855.34
2022-08-19T11:31:28.940Z,95863.94
2022-08-19T11:34:02.636Z,95870.50
2022-08-19T11:36:31.352Z,95866.59
2022-08-19T11:38:58.449Z,95864.66
2022-08-19T11:41:26.391Z,95855.91
2022-08-19T11:43:56.013Z,95854.75
2022-08-19T11:46:25.954Z,95845.97
2022-08-19T11:48:53.359Z,95844.97
2022-08-19T11:51:23.236Z,95844.41
2022-08-19T11:53:51.655Z,95844.16
2022-08-19T11:56:19.732Z,95843.84
2022-08-19T11:58:47.031Z,95844.94
2022-08-19T12:01:16.921Z,95841.19
2022-08-19T12:03:45.856Z,95835.44
2022-08-19T12:06:17.758Z,95846.41
2022-08-19T12:08:45.584Z,95854.75
2022-08-19T12:11:14.616Z,95842.75
2022-08-19T12:13:46.753Z,95847.09
2022-08-19T12:16:17.899Z,95846.22
2022-08-19T12:18:47.181Z,95842.38
2022-08-19T12:21:16.954Z,95849.50
2022-08-19T12:23:46.310Z,95843.66
2022-08-19T12:26:13.545Z,95836.94
2022-08-19T12:28:40.846Z,95848.63
2022-08-19T12:31:08.333Z,95845.81
2022-08-19T12:33:35.685Z,95846.84
2022-08-19T12:36:08.441Z,95837.00
2022-08-19T12:38:37.047Z,95838.06
2022-08-19T12:41:08.572Z,95833.88
2022-08-19T12:43:35.935Z,95834.34
2022-08-19T12:46:05.183Z,95836.69
2022-08-19T12:48:35.688Z,95833.75
2022-08-19T12:51:16.335Z,95834.84
2022-08-19T12:53:43.767Z,95832.25
2022-08-19T12:56:12.374Z,95827.16
2022-08-19T12:58:40.248Z,95827.53
2022-08-19T13:01:09.556Z,95831.50
2022-08-19T13:03:40.563Z,95839.47
2022-08-19T13:06:09.398Z,95831.06
2022-08-19T13:08:37.558Z,95835.00
2022-08-19T13:11:13.923Z,95843.00
2022-08-19T13:13:42.575Z,95829.56
2022-08-19T13:16:12.212Z,95830.16
2022-08-19T13:18:41.181Z,95833.88
2022-08-19T13:21:10.330Z,95845.38
2022-08-19T13:23:37.493Z,95829.50
2022-08-19T13:26:06.993Z,95836.69
2022-08-19T13:28:54.160Z,95834.03
2022-08-19T13:31:42.415Z,95835.31
2022-08-19T13:34:10.191Z,95840.53
2022-08-19T13:36:38.816Z,95828.19
2022-08-19T13:39:08.485Z,95812.16
2022-08-19T13:41:36.987Z,95820.09
2022-08-19T13:44:06.717Z,95833.28
2022-08-19T13:46:33.867Z,95824.28
2022-08-19T13:49:00.993Z,95842.31
2022-08-19T13:51:28.153Z,95838.88
2022-08-19T13:53:56.195Z,95827.25
2022-08-19T13:56:26.302Z,95832.56
2022-08-19T13:58:54.427Z,95838.69
2022-08-19T14:01:24.377Z,95821.69
2022-08-19T14:03:52.335Z,95818.06
2022-08-19T14:06:20.782Z,95824.63
2022-08-19T14:08:47.895Z,95829.56
2022-08-19T14:11:15.670Z,95826.41
2022-08-19T14:13:42.842Z,95819.28
2022-08-19T14:16:11.962Z,95836.38
2022-08-19T14:18:39.412Z,95837.34
2022-08-19T14:21:06.817Z,95831.84
2022-08-19T14:23:34.639Z,95827.16
2022-08-19T14:26:15.635Z,95819.94
2022-08-19T14:28:44.448Z,95822.69
2022-08-19T14:31:19.353Z,95816.97
2022-08-19T14:33:51.552Z,95816.22
2022-08-19T14:36:20.627Z,95818.84
2022-08-19T14:38:48.786Z,95821.06
2022-08-19T14:41:20.245Z,95818.13
2022-08-19T14:43:50.735Z,95824.84
2022-08-19T14:46:21.525Z,95828.47
2022-08-19T14:48:50.678Z,95821.63
2022-08-19T14:51:20.795Z,95817.09
2022-08-19T14:53:49.720Z,95817.81
2022-08-19T14:56:20.285Z,95824.88
2022-08-19T14:58:48.213Z,95829.28
2022-08-19T15:01:15.508Z,95829.66
2022-08-19T15:03:42.750Z,95828.38
2022-08-19T15:06:12.533Z,95828.81
2022-08-19T15:08:41.938Z,95828.16
2022-08-19T15:11:12.199Z,95828.50
2022-08-19T15:13:40.589Z,95829.16
2022-08-19T15:16:10.050Z,95833.69
2022-08-19T15:18:46.288Z,95830.25
2022-08-19T15:21:17.381Z,95829.53
2022-08-19T15:23:55.876Z,95832.59
2022-08-19T15:26:23.027Z,95838.84
2022-08-19T15:28:50.186Z,95827.38
2022-08-19T15:31:28.001Z,95845.44
2022-08-19T15:33:58.458Z,95834.31
2022-08-19T15:36:27.063Z,95836.38
2022-08-19T15:38:55.980Z,95848.25
2022-08-19T15:41:24.477Z,95843.13
2022-08-19T15:43:59.645Z,95843.41
2022-08-19T15:46:29.455Z,95839.72
2022-08-19T15:49:00.352Z,95840.78
2022-08-19T15:51:32.492Z,95842.38
2022-08-19T15:54:00.082Z,95839.47
2022-08-19T15:56:57.725Z,95842.13
2022-08-19T15:59:47.102Z,95838.06
2022-08-19T16:02:35.332Z,95833.38
2022-08-19T16:05:26.763Z,95838.97
2022-08-19T16:07:54.665Z,95824.09
2022-08-19T16:10:27.224Z,95843.75
2022-08-19T16:12:57.547Z,95839.63
2022-08-19T16:15:27.812Z,95845.28
2022-08-19T16:17:56.513Z,95840.91
2022-08-19T16:20:26.347Z,95840.09
2022-08-19T16:22:55.188Z,95833.91
2022-08-19T16:25:27.439Z,95845.00
2022-08-19T16:28:07.587Z,95843.50
2022-08-19T16:30:37.549Z,95837.09
2022-08-19T16:33:04.941Z,95848.38
2022-08-19T16:35:32.153Z,95853.03
2022-08-19T16:37:59.341Z,95854.75
2022-08-19T16:40:26.569Z,95861.22
2022-08-19T16:42:53.707Z,95856.31
2022-08-19T16:45:21.861Z,95850.44
2022-08-19T16:47:49.023Z,95858.09
2022-08-19T16:50:22.128Z,95856.47
2022-08-19T16:52:58.685Z,95849.19
2022-08-19T16:55:27.886Z,95848.13
2022-08-19T16:57:55.255Z,95854.41
2022-08-19T17:00:22.591Z,95862.47
2022-08-19T17:02:49.862Z,95863.22
2022-08-19T17:05:17.138Z,95861.22
2022-08-19T17:07:44.545Z,95848.91
2022-08-19T17:10:11.652Z,95859.75
2022-08-19T17:12:38.815Z,95860.50
2022-08-19T17:15:08.130Z,95858.44
2022-08-19T17:17:35.790Z,95854.31
2022-08-19T17:20:04.283Z,95851.78
2022-08-19T17:22:31.514Z,95854.94
2022-08-19T17:24:58.780Z,95855.53
2022-08-19T17:27:31.610Z,95850.09
2022-08-19T17:30:01.113Z,95861.41
2022-08-19T17:32:28.281Z,95852.16
2022-08-19T17:34:55.524Z,95862.63
2022-08-19T17:37:23.037Z,95860.59
2022-08-19T17:39:50.256Z,95855.22
2022-08-19T17:42:17.487Z,95860.78
2022-08-19T17:44:44.873Z,95860.41
2022-08-19T17:47:19.271Z,95867.75
2022-08-19T17:49:46.841Z,95870.44
2022-08-19T17:52:14.125Z,95867.78
2022-08-19T17:54:41.202Z,95880.78
2022-08-19T17:57:09.537Z,95873.03
2022-08-19T17:59:39.758Z,95879.97
2022-08-19T18:02:10.208Z,95883.66
2022-08-19T18:04:38.899Z,95880.94
2022-08-19T18:07:06.223Z,95879.69
2022-08-19T18:09:41.918Z,95890.00
2022-08-19T18:12:13.928Z,95886.94
2022-08-19T18:14:41.863Z,95890.09
2022-08-19T18:17:12.352Z,95895.34
2022-08-19T18:19:43.427Z,95904.53
2022-08-19T18:22:27.239Z,95899.94
2022-08-19T18:24:57.003Z,95906.56
2022-08-19T18:27:27.046Z,95915.78
2022-08-19T18:29:57.985Z,95914.81
2022-08-19T18:32:27.303Z,95918.31
2022-08-19T18:34:54.779Z,95913.81
2022-08-19T18:37:22.639Z,95920.75
2022-08-19T18:40:08.298Z,95923.91
2022-08-19T18:42:54.075Z,95918.03
2022-08-19T18:45:43.543Z,95923.78
2022-08-19T18:48:29.757Z,95924.06
2022-08-19T18:50:58.779Z,95937.44
2022-08-19T18:53:26.980Z,95942.03
2022-08-19T18:55:55.002Z,95938.66
2022-08-19T18:58:32.038Z,95943.34
2022-08-19T19:01:01.990Z,95937.97
2022-08-19T19:03:29.238Z,95954.69
2022-08-19T19:05:56.367Z,95963.00
2022-08-19T19:08:27.426Z,95959.47
2022-08-19T19:10:56.371Z,95950.22
2022-08-19T19:13:23.479Z,95954.28
2022-08-19T19:15:50.667Z,95959.56
2022-08-19T19:18:17.751Z,95962.31
2022-08-19T19:20:44.907Z,95963.72
2022-08-19T19:23:12.165Z,95974.88
2022-08-19T19:25:50.525Z,95960.19
2022-08-19T19:28:25.475Z,95969.91
2022-08-19T19:30:54.642Z,95973.81
2022-08-19T19:33:21.771Z,95966.13
2022-08-19T19:35:48.983Z,95977.16
2022-08-19T19:38:16.237Z,95974.03
2022-08-19T19:40:43.352Z,95973.84
2022-08-19T19:43:10.481Z,95976.53
2022-08-19T19:45:38.127Z,95982.13
2022-08-19T19:48:05.617Z,95983.97
2022-08-19T19:50:32.751Z,95979.31
2022-08-19T19:52:59.943Z,95979.03
2022-08-19T19:55:28.819Z,95980.63
2022-08-19T19:57:57.682Z,95974.72
2022-08-19T20:00:25.740Z,95981.56
2022-08-19T20:02:55.783Z,95982.69
2022-08-19T20:05:23.258Z,95979.81
2022-08-19T20:08:11.440Z,95979.16
2022-08-19T20:10:39.565Z,95984.50
2022-08-19T20:13:07.421Z,95986.91
2022-08-19T20:15:37.902Z,95992.34
2022-08-19T20:18:07.555Z,95986.13
2022-08-19T20:20:35.366Z,95996.22
2022-08-19T20:23:02.569Z,95990.63
2022-08-19T20:25:30.387Z,95993.75
2022-08-19T20:27:57.846Z,95991.91
2022-08-19T20:30:25.562Z,95995.91
2022-08-19T20:32:56.444Z,95998.41
2022-08-19T20:35:23.990Z,96002.13
2022-08-19T20:37:53.850Z,96008.97
2022-08-19T20:40:24.995Z,96006.81
2022-08-19T20:42:52.116Z,96008.34
2022-08-19T20:45:33.090Z,96006.50
2022-08-19T20:48:03.702Z,96012.41
2022-08-19T20:50:35.166Z,96022.34
2022-08-19T20:53:16.493Z,96022.59
2022-08-19T20:55:45.554Z,96014.78
2022-08-19T20:58:13.613Z,96021.47
2022-08-19T21:00:41.423Z,96024.09
2022-08-19T21:03:08.692Z,96024.72
2022-08-19T21:05:36.226Z,96018.78
2022-08-19T21:08:04.537Z,96025.53
2022-08-19T21:10:32.632Z,96015.06
2022-08-19T21:12:59.786Z,96030.56
2022-08-19T21:15:26.902Z,96034.28
2022-08-19T21:17:54.110Z,96025.03
2022-08-19T21:20:21.328Z,96016.84
2022-08-19T21:22:48.820Z,96027.81
2022-08-19T21:25:17.539Z,96028.06
2022-08-19T21:27:44.675Z,96030.41
2022-08-19T21:30:12.466Z,96028.25
2022-08-19T21:32:39.622Z,96035.84
2022-08-19T21:35:07.017Z,96036.75
2022-08-19T21:37:35.451Z,96026.84
2022-08-19T21:40:02.881Z,96030.03
2022-08-19T21:42:30.058Z,96031.84
2022-08-19T21:44:57.189Z,96025.59
2022-08-19T21:47:24.296Z,96020.16
2022-08-19T21:49:51.393Z,96028.34
2022-08-19T21:52:26.765Z,96017.44
2022-08-19T21:54:55.334Z,96016.66
2022-08-19T21:57:24.453Z,96019.91
2022-08-19T21:59:51.873Z,96015.22
2022-08-19T22:02:21.082Z,96013.00
2022-08-19T22:04:51.337Z,96015.97
2022-08-19T22:07:19.702Z,96016.25
2022-08-19T22:09:48.503Z,96014.94
2022-08-19T22:12:26.453Z,96026.72
2022-08-19T22:14:54.597Z,96022.53
2022-08-19T22:17:22.906Z,96021.34
2022-08-19T22:19:50.883Z,96022.09
2022-08-19T22:22:36.847Z,96021.34
2022-08-19T22:25:29.112Z,96018.13
2022-08-19T22:28:01.921Z,96026.53
2022-08-19T22:30:33.380Z,96018.31
2022-08-19T22:33:05.091Z,96020.38
2022-08-19T22:35:35.752Z,96023.34
2022-08-19T22:38:06.304Z,96024.97
2022-08-19T22:40:36.542Z,96028.25
2022-08-19T22:43:31.722Z,96023.41
2022-08-19T22:46:00.082Z,96009.63
2022-08-19T22:48:30.684Z,96020.69
2022-08-19T22:51:16.984Z,96020.41
2022-08-19T22:53:46.503Z,96014.56
2022-08-19T22:56:17.281Z,96014.41
2022-08-19T22:58:46.045Z,96018.84
2022-08-19T23:01:27.327Z,96020.00
2022-08-19T23:03:59.233Z,96014.00
2022-08-19T23:06:33.042Z,96010.53
2022-08-19T23:09:04.646Z,96012.09
2022-08-19T23:11:35.533Z,96014.81
2022-08-19T23:14:04.951Z,96016.63
2022-08-19T23:16:34.747Z,96023.38
2022-08-19T23:19:01.756Z,96010.53
2022-08-19T23:21:29.580Z,96011.06
2022-08-19T23:23:56.798Z,96014.13
2022-08-19T23:26:24.044Z,96013.94
2022-08-19T23:29:09.895Z,96014.47
2022-08-19T23:31:37.264Z,96014.38
2022-08-19T23:34:04.423Z,95999.66
2022-08-19T23:36:31.558Z,95999.84
2022-08-19T23:38:59.530Z,95999.38
2022-08-19T23:41:27.877Z,96004.97
2022-08-19T23:43:55.219Z,95994.69
2022-08-19T23:46:27.933Z,95998.44
2022-08-19T23:48:56.891Z,96002.63
2022-08-19T23:51:26.334Z,95996.75
2022-08-19T23:53:54.121Z,96001.94
2022-08-19T23:56:21.443Z,95992.31
2022-08-19T23:58:49.150Z,95999.78
